Ferry Katsuragi — JI3611 — position and weather

sailwx.info

Track history (hours):
 
Tides and Currents Weather Stations Pressure Air Temp Water Temp Dewpoint Dewpoint Depression Visibility Wind Speed Wind Dir Waves Ship Positions

Ferry Katsuragi

Last reported at 2016-Sep-29 00:14 UTC. Time now 2016-Sep-29 08:30 UTC.
Position N 34°09' E 134°57'.

Length 108 m; draft 4 m.

Type: Passenger vessel. MMSI: 431301245.

Date/timePositionNaut miles runAvg speedWind from/ knotsBaromVisibWave heightAir tempDewpointWater temp
2016-Sep-29 00:14N 34°09' E 134°57'10 1.4
2016-Sep-28 16:33N 34°13' E 135°09'0 0.0
2016-Sep-28 15:33N 34°13' E 135°09'7 0.5
2016-Sep-28 03:33N 34°11' E 135°01'7 1.6
2016-Sep-27 23:33N 34°13' E 135°09'21 5.0
2016-Sep-27 19:18N 34°06' E 134°44'15 3.2
2016-Sep-27 14:33N 34°11' E 135°02'2 0.6
2016-Sep-27 10:33N 34°12' E 135°04'5 0.5
2016-Sep-27 00:09N 34°09' E 134°59'9 1.0
2016-Sep-26 15:33N 34°13' E 135°09'2110.5
2016-Sep-26 13:32N 34°04' E 134°45'10 0.8
2016-Sep-26 00:16N 34°09' E 134°56'11 1.6
2016-Sep-25 17:33N 34°13' E 135°09'0 0.0
2016-Sep-25 16:33N 34°13' E 135°09'0 0.0
2016-Sep-25 15:33N 34°13' E 135°09'7 6.8
2016-Sep-25 14:33N 34°11' E 135°01'3 0.7
2016-Sep-25 10:33N 34°12' E 135°04'4 4.1
2016-Sep-25 09:33N 34°13' E 135°09'0 0.0
2016-Sep-25 04:33N 34°13' E 135°09'9 2.1
2016-Sep-25 00:10N 34°10' E 134°58'8 4.7
2016-Sep-24 22:33N 34°13' E 135°06'18 5.2
2016-Sep-24 19:09N 34°07' E 134°46'813.3
2016-Sep-24 18:31N 34°09' E 134°56'1111.7
2016-Sep-24 17:33N 34°13' E 135°09'0 0.0
2016-Sep-24 16:33N 34°13' E 135°09'7 3.3
2016-Sep-24 14:33N 34°11' E 135°01'3 0.7
2016-Sep-24 10:33N 34°12' E 135°04'4 3.9
2016-Sep-24 09:33N 34°13' E 135°09'6 1.0
2016-Sep-24 03:33N 34°11' E 135°02'10 3.4
2016-Sep-24 00:33N 34°07' E 134°50'9 1.8
2016-Sep-23 19:32N 34°04' E 134°40'2512.9
2016-Sep-23 17:34N 34°13' E 135°09'0 0.0
2016-Sep-23 16:33N 34°13' E 135°09'0 0.0
2016-Sep-23 15:33N 34°13' E 135°09'0 0.0
2016-Sep-23 09:33N 34°13' E 135°09'21 6.1
2016-Sep-23 06:10N 34°05' E 134°45'2112.9
2016-Sep-23 04:33N 34°13' E 135°09'6 5.9
2016-Sep-23 03:33N 34°12' E 135°02'4 1.1
2016-Sep-23 00:09N 34°10' E 134°58'915.5
2016-Sep-22 23:33N 34°13' E 135°08'0 0.0
2016-Sep-22 04:33N 34°13' E 135°09'6 6.1
2016-Sep-22 03:33N 34°12' E 135°01'4 1.3
2016-Sep-22 00:14N 34°09' E 134°57'1014.6
2016-Sep-21 23:33N 34°13' E 135°08'2 2.0
2016-Sep-21 22:33N 34°13' E 135°06'18 5.4
2016-Sep-21 19:11N 34°06' E 134°45'20 7.8
2016-Sep-21 16:33N 34°13' E 135°09'0 0.0
2016-Sep-21 09:34N 34°13' E 135°09'5 0.9
2016-Sep-21 03:33N 34°11' E 135°02'7 0.2
2016-Sep-19 14:28N 34°18' E 134°60'17 5.8
2016-Sep-19 11:33N 34°06' E 134°45'2110.4
2016-Sep-19 09:33N 34°13' E 135°09'6 1.1
2016-Sep-19 03:32N 34°11' E 135°01'  
Track history (hours):
 
Tides and Currents Weather Stations Pressure Air Temp Water Temp Dewpoint Dewpoint Depression Visibility Wind Speed Wind Dir Waves Ship Positions

Ferry Katsuragi

Last reported at 2016-Sep-29 00:14 UTC. Time now 2016-Sep-29 08:30 UTC.
Position N 34°09' E 134°57'.

Length 108 m; draft 4 m.

Type: Passenger vessel. MMSI: 431301245.

Date/timePositionNaut miles runAvg speedWind from/ knotsBaromVisibWave heightAir tempDewpointWater temp
2016-Sep-29 00:14N 34°09' E 134°57'10 1.4
2016-Sep-28 16:33N 34°13' E 135°09'0 0.0
2016-Sep-28 15:33N 34°13' E 135°09'7 0.5
2016-Sep-28 03:33N 34°11' E 135°01'7 1.6
2016-Sep-27 23:33N 34°13' E 135°09'21 5.0
2016-Sep-27 19:18N 34°06' E 134°44'15 3.2
2016-Sep-27 14:33N 34°11' E 135°02'2 0.6
2016-Sep-27 10:33N 34°12' E 135°04'5 0.5
2016-Sep-27 00:09N 34°09' E 134°59'9 1.0
2016-Sep-26 15:33N 34°13' E 135°09'2110.5
2016-Sep-26 13:32N 34°04' E 134°45'10 0.8
2016-Sep-26 00:16N 34°09' E 134°56'11 1.6
2016-Sep-25 17:33N 34°13' E 135°09'0 0.0
2016-Sep-25 16:33N 34°13' E 135°09'0 0.0
2016-Sep-25 15:33N 34°13' E 135°09'7 6.8
2016-Sep-25 14:33N 34°11' E 135°01'3 0.7
2016-Sep-25 10:33N 34°12' E 135°04'4 4.1
2016-Sep-25 09:33N 34°13' E 135°09'0 0.0
2016-Sep-25 04:33N 34°13' E 135°09'9 2.1
2016-Sep-25 00:10N 34°10' E 134°58'8 4.7
2016-Sep-24 22:33N 34°13' E 135°06'18 5.2
2016-Sep-24 19:09N 34°07' E 134°46'813.3
2016-Sep-24 18:31N 34°09' E 134°56'1111.7
2016-Sep-24 17:33N 34°13' E 135°09'0 0.0
2016-Sep-24 16:33N 34°13' E 135°09'7 3.3
2016-Sep-24 14:33N 34°11' E 135°01'3 0.7
2016-Sep-24 10:33N 34°12' E 135°04'4 3.9
2016-Sep-24 09:33N 34°13' E 135°09'6 1.0
2016-Sep-24 03:33N 34°11' E 135°02'10 3.4
2016-Sep-24 00:33N 34°07' E 134°50'9 1.8
2016-Sep-23 19:32N 34°04' E 134°40'2512.9
2016-Sep-23 17:34N 34°13' E 135°09'0 0.0
2016-Sep-23 16:33N 34°13' E 135°09'0 0.0
2016-Sep-23 15:33N 34°13' E 135°09'0 0.0
2016-Sep-23 09:33N 34°13' E 135°09'21 6.1
2016-Sep-23 06:10N 34°05' E 134°45'2112.9
2016-Sep-23 04:33N 34°13' E 135°09'6 5.9
2016-Sep-23 03:33N 34°12' E 135°02'4 1.1
2016-Sep-23 00:09N 34°10' E 134°58'915.5
2016-Sep-22 23:33N 34°13' E 135°08'0 0.0
2016-Sep-22 04:33N 34°13' E 135°09'6 6.1
2016-Sep-22 03:33N 34°12' E 135°01'4 1.3
2016-Sep-22 00:14N 34°09' E 134°57'1014.6
2016-Sep-21 23:33N 34°13' E 135°08'2 2.0
2016-Sep-21 22:33N 34°13' E 135°06'18 5.4
2016-Sep-21 19:11N 34°06' E 134°45'20 7.8
2016-Sep-21 16:33N 34°13' E 135°09'0 0.0
2016-Sep-21 09:34N 34°13' E 135°09'5 0.9
2016-Sep-21 03:33N 34°11' E 135°02'7 0.2
2016-Sep-19 14:28N 34°18' E 134°60'17 5.8
2016-Sep-19 11:33N 34°06' E 134°45'2110.4
2016-Sep-19 09:33N 34°13' E 135°09'6 1.1
2016-Sep-19 03:32N 34°11' E 135°01'  

Dump ship's entire track history